Time;durP1;ratioP1;P1;durP2;ratioP2;P2;SDS_P1;SDS_P2;PMS_P1;PMS_P2;Temp;Humidity;BMP_temperature;BMP_pressure;BME280_temperature;BME280_humidity;BME280_pressure;Samples;Min_cycle;Max_cycle;Signal;HPM_P1;HPM_P2
2021/11/30 00:01:09;;;;;;;;;12.25;11.75;;;;;4.37;64.87;101608.44;5041573;28;46961;-96
2021/11/30 00:03:38;;;;;;;;;13.00;11.25;;;;;4.42;64.95;101603.63;5029147;28;45374;-96
2021/11/30 00:06:10;;;;;;;;;13.25;10.50;;;;;4.30;65.07;101588.84;5045573;28;45380;-96
2021/11/30 00:08:37;;;;;;;;;22.50;16.25;;;;;4.44;64.83;101610.78;5100670;22;45346;-96
2021/11/30 00:11:07;;;;;;;;;13.75;13.00;;;;;4.39;64.90;101593.88;5062111;28;47217;-96
2021/11/30 00:13:34;;;;;;;;;18.50;15.00;;;;;4.46;65.06;101597.91;5051485;28;45300;-96
2021/11/30 00:16:00;;;;;;;;;17.50;15.25;;;;;4.41;64.76;101587.13;5069397;28;45557;-96
2021/11/30 00:18:32;;;;;;;;;19.75;14.50;;;;;4.41;65.03;101578.41;5054711;28;45288;-96
2021/11/30 00:21:01;;;;;;;;;13.00;12.75;;;;;4.44;65.18;101574.38;5086595;28;47385;-96
2021/11/30 00:23:26;;;;;;;;;13.00;13.00;;;;;4.52;65.29;101577.63;5078304;28;45564;-96
2021/11/30 00:25:52;;;;;;;;;14.25;13.25;;;;;4.71;64.88;101606.88;5179327;22;44915;-96
2021/11/30 00:28:17;;;;;;;;;16.50;13.50;;;;;4.68;65.09;101590.22;5107102;27;44917;-96
2021/11/30 00:30:42;;;;;;;;;13.00;13.00;;;;;4.63;65.18;101581.13;5108733;27;46946;-96
2021/11/30 00:33:09;;;;;;;;;10.25;10.00;;;;;4.66;64.93;101585.69;5125461;27;44827;-96
2021/11/30 00:35:35;;;;;;;;;10.00;10.00;;;;;4.73;65.36;101597.50;5100106;28;44822;-96
2021/11/30 00:38:02;;;;;;;;;12.75;11.50;;;;;4.61;65.11;101569.69;5087571;28;44778;-96
2021/11/30 00:40:28;;;;;;;;;18.75;14.25;;;;;4.82;64.99;101592.16;5091528;27;47229;-96
2021/11/30 00:42:58;;;;;;;;;15.25;11.50;;;;;4.63;65.43;101555.13;5096231;27;45634;-96
2021/11/30 00:45:25;;;;;;;;;13.50;11.00;;;;;4.76;65.24;101570.06;5093825;27;44791;-96
2021/11/30 00:47:59;;;;;;;;;13.25;10.25;;;;;4.69;65.30;101547.81;5092149;27;44956;-96
2021/11/30 00:50:26;;;;;;;;;14.75;10.75;;;;;4.80;65.18;101563.38;5090026;27;48080;-96
2021/11/30 00:52:54;;;;;;;;;13.00;13.00;;;;;4.90;65.08;101583.25;5105725;22;45555;-96
2021/11/30 00:55:21;;;;;;;;;13.25;10.50;;;;;4.69;65.12;101559.94;5084185;27;44829;-96
2021/11/30 00:57:47;;;;;;;;;12.00;9.50;;;;;4.81;65.07;101580.84;5041577;28;45286;-96
2021/11/30 01:00:24;;;;;;;;;18.75;13.75;;;;;4.94;65.19;101597.44;5071908;28;47959;-96
2021/11/30 01:02:50;;;;;;;;;12.00;10.00;;;;;4.80;65.21;101566.91;5093519;27;45317;-96
2021/11/30 01:05:17;;;;;;;;;15.25;14.00;;;;;5.00;65.33;101595.38;5078208;27;45190;-96
2021/11/30 01:07:43;;;;;;;;;13.50;11.00;;;;;4.78;65.43;101552.88;5091356;27;44982;-96
2021/11/30 01:10:12;;;;;;;;;12.25;11.50;;;;;4.85;65.38;101553.34;5079353;28;47164;-96
2021/11/30 01:12:38;;;;;;;;;15.50;14.00;;;;;4.84;65.30;101547.28;5083728;28;45346;-96
2021/11/30 01:15:09;;;;;;;;;10.50;9.00;;;;;5.03;65.21;101577.38;5068111;28;45251;-96
2021/11/30 01:17:34;;;;;;;;;13.50;11.00;;;;;5.07;65.11;101569.06;5077359;27;45532;-96
2021/11/30 01:20:00;;;;;;;;;12.00;9.50;;;;;5.02;65.01;101558.28;5075052;28;47054;-96
2021/11/30 01:22:25;;;;;;;;;17.75;14.00;;;;;5.11;65.45;101576.31;5054204;28;45362;-96
2021/11/30 01:24:51;;;;;;;;;10.75;10.00;;;;;5.03;65.20;101551.34;5069694;28;45349;-96
2021/11/30 01:27:20;;;;;;;;;15.50;12.25;;;;;5.19;65.29;101568.22;5090386;22;45387;-96
2021/11/30 01:30:08;;;;;;;;;14.25;11.75;;;;;5.18;65.19;101558.59;5296290;22;45439;-95
2021/11/30 01:32:34;;;;;;;;;16.75;12.25;;;;;5.24;65.46;101556.47;5061042;28;46032;-96
2021/11/30 01:34:59;;;;;;;;;17.25;12.25;;;;;5.21;65.46;101545.81;5065415;28;44908;-96
2021/11/30 01:37:25;;;;;;;;;9.00;9.00;;;;;5.14;64.93;101541.81;5061757;28;45492;-96
2021/11/30 01:39:51;;;;;;;;;11.25;10.25;;;;;5.23;65.51;101552.94;5073353;27;47116;-96
2021/11/30 01:42:17;;;;;;;;;10.25;9.00;;;;;5.33;65.38;101562.44;5060230;28;45623;-96
2021/11/30 01:47:23;;;;;;;;;13.75;10.25;;;;;5.19;65.31;101526.56;5073809;27;45493;-96
2021/11/30 01:49:50;;;;;;;;;14.00;12.25;;;;;5.24;65.38;101520.03;5100262;27;47228;-96
2021/11/30 01:52:15;;;;;;;;;13.75;11.50;;;;;5.23;65.55;101518.22;5100894;27;46099;-96
2021/11/30 01:54:42;;;;;;;;;9.50;9.50;;;;;5.36;65.59;101540.94;5081966;28;45264;-96
2021/11/30 01:57:10;;;;;;;;;14.75;14.50;;;;;5.36;65.79;101541.81;5081171;27;45517;-96
2021/11/30 01:59:36;;;;;;;;;20.00;12.75;;;;;5.39;65.64;101538.56;5082016;27;48276;-96
2021/11/30 02:02:05;;;;;;;;;14.25;10.75;;;;;5.27;66.05;101522.88;5084836;27;45544;-96
2021/11/30 02:04:31;;;;;;;;;13.00;10.50;;;;;5.31;65.58;101524.94;5102333;27;45382;-96
2021/11/30 02:06:58;;;;;;;;;11.75;11.25;;;;;5.31;66.15;101519.72;5102937;27;45418;-96
2021/11/30 02:09:23;;;;;;;;;11.25;9.75;;;;;5.27;66.08;101514.16;5103029;27;47272;-96
2021/11/30 02:11:50;;;;;;;;;15.00;10.50;;;;;5.40;65.74;101521.25;5101018;27;45385;-96
2021/11/30 02:14:16;;;;;;;;;10.25;10.00;;;;;5.41;65.72;101513.53;5083448;27;45446;-96
2021/11/30 02:16:42;;;;;;;;;12.75;10.00;;;;;5.44;65.42;101515.47;5086372;27;45485;-96
2021/11/30 02:19:07;;;;;;;;;16.00;14.00;;;;;5.33;65.63;101483.41;5101869;27;48145;-96
2021/11/30 02:21:37;;;;;;;;;14.00;12.00;;;;;5.42;65.33;101494.53;5096865;27;45360;-96
2021/11/30 02:24:07;;;;;;;;;12.50;11.50;;;;;5.37;65.53;101488.06;5080080;27;45266;-96
2021/11/30 02:26:41;;;;;;;;;14.75;10.50;;;;;5.43;65.56;101503.28;5088945;27;45389;-96
2021/11/30 02:29:27;;;;;;;;;14.00;11.00;;;;;5.33;65.66;101486.00;5119028;27;46847;-96
2021/11/30 02:31:52;;;;;;;;;13.75;12.50;;;;;5.41;65.71;101503.13;5096757;27;45776;-96
2021/11/30 02:34:18;;;;;;;;;13.50;11.00;;;;;5.25;65.12;101486.31;5082442;27;45394;-96
2021/11/30 02:39:15;;;;;;;;;15.50;10.75;;;;;5.38;65.71;101499.41;5093902;27;45350;-96
2021/11/30 02:41:41;;;;;;;;;11.00;11.00;;;;;5.24;65.33;101478.38;5076785;27;44867;-96
2021/11/30 02:44:10;;;;;;;;;10.75;9.50;;;;;5.11;65.35;101450.47;5084904;27;44844;-96
2021/11/30 02:46:55;;;;;;;;;13.75;12.00;;;;;5.29;65.70;101465.72;5085288;27;44819;-96
2021/11/30 02:49:25;;;;;;;;;17.00;11.50;;;;;5.36;65.55;101486.25;5100648;27;47177;-96
2021/11/30 02:52:05;;;;;;;;;12.00;11.25;;;;;5.22;65.70;101459.13;5087008;27;45461;-96
2021/11/30 02:54:31;;;;;;;;;14.00;10.00;;;;;5.40;66.00;101505.63;5080232;27;45513;-96
2021/11/30 02:56:59;;;;;;;;;14.50;12.75;;;;;5.27;65.99;101483.84;5095535;27;44978;-96
2021/11/30 02:59:27;;;;;;;;;10.00;10.00;;;;;5.22;66.23;101464.34;5073506;27;47354;-96
2021/11/30 03:01:57;;;;;;;;;14.00;11.50;;;;;5.25;66.07;101475.00;5080121;28;45437;-96
2021/11/30 03:04:24;;;;;;;;;14.75;14.75;;;;;5.52;66.13;101506.59;5082670;27;45324;-96
2021/11/30 03:06:50;;;;;;;;;14.75;12.00;;;;;5.53;65.79;101504.91;5138816;22;45277;-96
2021/11/30 03:09:15;;;;;;;;;10.25;10.25;;;;;5.45;66.05;101471.34;5078680;28;47339;-96
2021/11/30 03:11:42;;;;;;;;;10.25;10.25;;;;;5.59;65.87;101487.16;5078168;28;44814;-96
2021/11/30 03:14:08;;;;;;;;;8.00;8.00;;;;;5.79;66.04;101524.25;5052413;28;45634;-96
2021/11/30 03:17:13;;;;;;;;;13.25;11.50;;;;;5.73;66.07;101502.91;5069778;28;45417;-96
2021/11/30 03:19:39;;;;;;;;;12.75;12.25;;;;;5.62;65.79;101471.75;5086301;28;45418;-96
2021/11/30 03:22:06;;;;;;;;;19.25;14.75;;;;;5.90;65.90;101509.47;5061574;28;45424;-96
2021/11/30 03:24:32;;;;;;;;;12.25;10.00;;;;;5.92;65.62;101495.75;5061892;28;44758;-96
2021/11/30 03:26:59;;;;;;;;;10.00;8.50;;;;;5.80;65.21;101473.94;5061777;28;45539;-96
2021/11/30 03:29:24;;;;;;;;;11.50;11.50;;;;;5.95;65.62;101489.88;5064964;27;47269;-96
2021/11/30 03:32:07;;;;;;;;;11.75;11.75;;;;;6.03;65.60;101506.97;5096716;27;45685;-96
2021/11/30 03:34:35;;;;;;;;;11.50;10.00;;;;;5.96;65.16;101477.72;5081051;27;45499;-96
2021/11/30 03:37:01;;;;;;;;;12.00;11.50;;;;;6.08;65.55;101498.66;5085732;27;45410;-96
2021/11/30 03:52:58;;;;;;;;;11.25;9.25;;;;;6.07;66.01;101512.44;5038792;28;45330;-96
2021/11/30 03:55:23;;;;;;;;;13.75;10.50;;;;;6.11;66.30;101515.41;5020939;28;45285;-96
2021/11/30 03:57:48;;;;;;;;;15.00;11.50;;;;;6.04;66.58;101514.03;5024679;28;44889;-96
2021/11/30 04:00:14;;;;;;;;;11.50;10.50;;;;;5.85;66.29;101484.75;5037583;28;47669;-96
2021/11/30 04:02:40;;;;;;;;;10.50;10.25;;;;;6.03;66.43;101513.91;5019938;28;45285;-96
2021/11/30 04:07:42;;;;;;;;;9.25;9.25;;;;;5.81;66.76;101475.78;5455085;22;45353;-96
2021/11/30 04:10:12;;;;;;;;;11.00;10.00;;;;;5.87;67.26;101501.41;5066364;28;45406;-96
2021/11/30 04:12:37;;;;;;;;;13.75;11.50;;;;;5.89;66.97;101508.53;5065467;28;45457;-96
2021/11/30 04:15:03;;;;;;;;;12.25;9.00;;;;;5.79;67.30;101487.78;5063973;28;44868;-96
2021/11/30 04:17:29;;;;;;;;;11.00;11.00;;;;;5.84;67.57;101488.13;5036825;28;45278;-96
2021/11/30 04:19:54;;;;;;;;;11.75;11.75;;;;;5.80;67.68;101479.16;5043117;28;47352;-96
2021/11/30 04:22:20;;;;;;;;;13.50;12.00;;;;;5.73;67.73;101472.56;5060103;28;45161;-96
2021/11/30 04:24:45;;;;;;;;;13.25;11.75;;;;;5.82;67.64;101480.19;5044629;28;44847;-96
2021/11/30 04:29:46;;;;;;;;;10.75;9.25;;;;;5.86;68.42;101494.34;5186538;22;45123;-96
2021/11/30 04:32:11;;;;;;;;;12.25;11.25;;;;;5.70;67.94;101474.94;5051284;27;44939;-96
2021/11/30 04:34:37;;;;;;;;;10.00;10.00;;;;;5.75;68.06;101475.28;5067662;28;44770;-96
2021/11/30 04:37:02;;;;;;;;;12.50;11.00;;;;;5.57;68.33;101453.16;5065835;28;44790;-96
2021/11/30 04:39:28;;;;;;;;;10.25;10.25;;;;;5.74;68.25;101482.22;5068982;27;47343;-96
2021/11/30 04:41:53;;;;;;;;;12.25;11.25;;;;;5.73;68.71;101493.41;5077592;28;44941;-96
2021/11/30 04:44:23;;;;;;;;;13.00;11.75;;;;;5.51;68.72;101459.59;5042258;28;45255;-96
2021/11/30 04:46:55;;;;;;;;;14.00;11.50;;;;;5.67;69.10;101486.03;5035943;28;45401;-96
2021/11/30 04:54:34;;;;;;;;;11.00;9.25;;;;;5.74;68.52;101496.94;5286851;22;47082;-96
2021/11/30 04:57:00;;;;;;;;;10.75;10.00;;;;;5.71;68.89;101484.59;5038374;28;45570;-96
2021/11/30 04:59:26;;;;;;;;;8.50;7.25;;;;;5.65;69.40;101474.59;5022001;28;48739;-96
2021/11/30 05:01:53;;;;;;;;;9.75;9.75;;;;;5.63;69.49;101483.06;5039445;28;45814;-96
2021/11/30 05:04:18;;;;;;;;;5.25;3.50;;;;;5.64;69.67;101485.81;5044342;28;45499;-96
2021/11/30 05:06:44;;;;;;;;;15.25;9.00;;;;;5.55;69.81;101472.06;5039421;28;45523;-96
2021/11/30 05:09:10;;;;;;;;;10.50;8.25;;;;;5.57;69.58;101474.00;5027733;28;47983;-96
2021/11/30 05:11:37;;;;;;;;;11.25;11.25;;;;;5.54;69.87;101470.25;5025060;28;45440;-96
2021/11/30 05:14:03;;;;;;;;;10.50;10.50;;;;;5.57;69.91;101462.66;5018591;28;45334;-96
2021/11/30 05:16:29;;;;;;;;;10.75;8.75;;;;;5.62;70.24;101489.97;5029165;28;45176;-96
2021/11/30 05:18:54;;;;;;;;;12.00;12.00;;;;;5.55;69.52;101461.63;5042020;28;47274;-96
2021/11/30 05:21:19;;;;;;;;;9.75;9.75;;;;;5.59;69.88;101461.09;5029066;28;45464;-96
2021/11/30 05:23:45;;;;;;;;;9.50;8.25;;;;;5.64;69.91;101464.06;5034986;28;45184;-96
2021/11/30 05:26:46;;;;;;;;;11.75;8.50;;;;;5.48;69.72;101439.44;5082307;23;45311;-96
2021/11/30 05:29:11;;;;;;;;;10.50;10.50;;;;;5.43;69.97;101432.97;5039766;28;47106;-96
2021/11/30 05:31:37;;;;;;;;;9.00;7.25;;;;;5.63;70.35;101442.31;5062522;28;45336;-96
2021/11/30 05:34:03;;;;;;;;;12.00;10.50;;;;;5.67;70.29;101454.78;5070487;28;45377;-96
2021/11/30 05:36:40;;;;;;;;;16.25;11.50;;;;;5.44;69.71;101406.13;5055868;28;45341;-96
2021/11/30 05:39:05;;;;;;;;;13.75;12.00;;;;;5.48;70.08;101424.72;5050975;28;47409;-96
2021/11/30 05:41:31;;;;;;;;;15.25;10.00;;;;;5.47;70.38;101419.38;5059216;28;45151;-96
2021/11/30 05:44:02;;;;;;;;;12.00;10.00;;;;;5.60;69.86;101447.28;5053110;28;45187;-96
2021/11/30 05:46:36;;;;;;;;;15.00;11.25;;;;;5.48;69.91;101423.81;5055737;28;45431;-97
2021/11/30 05:49:05;;;;;;;;;12.75;12.00;;;;;5.74;69.92;101452.66;5050378;28;47415;-96
2021/11/30 05:51:33;;;;;;;;;12.50;10.75;;;;;5.58;70.08;101426.34;5073671;28;45781;-97
2021/11/30 05:54:00;;;;;;;;;15.00;12.25;;;;;5.74;69.54;101470.88;5058979;28;45576;-96
2021/11/30 05:56:36;;;;;;;;;12.75;10.50;;;;;5.53;69.58;101419.88;5070800;28;45607;-96
2021/11/30 05:59:20;;;;;;;;;10.50;10.50;;;;;5.57;70.16;101414.09;5033381;28;47391;-96
2021/11/30 06:01:50;;;;;;;;;13.50;13.50;;;;;5.80;69.64;101454.00;5045825;28;45428;-96
2021/11/30 06:04:17;;;;;;;;;15.50;12.75;;;;;5.70;70.42;101441.97;5042774;28;45467;-96
2021/11/30 06:06:42;;;;;;;;;13.50;12.75;;;;;5.58;69.27;101415.91;5057929;28;45206;-96
2021/11/30 06:09:09;;;;;;;;;11.25;10.75;;;;;5.86;69.67;101465.69;5046225;28;47012;-96
2021/11/30 06:11:35;;;;;;;;;12.25;9.25;;;;;5.67;70.14;101435.66;5056045;28;45297;-96
2021/11/30 06:14:01;;;;;;;;;5.25;3.00;;;;;5.82;69.80;101446.34;5049762;28;45372;-96
2021/11/30 06:16:35;;;;;;;;;16.00;10.50;;;;;5.67;69.89;101422.63;5043623;28;45628;-96
2021/11/30 06:19:01;;;;;;;;;10.00;10.00;;;;;5.85;69.85;101440.44;5047902;28;47754;-96
2021/11/30 06:21:33;;;;;;;;;14.75;11.25;;;;;5.70;69.94;101415.03;5073880;28;44827;-96
2021/11/30 06:23:58;;;;;;;;;7.75;7.75;;;;;5.84;69.81;101428.19;5046094;28;45318;-96
2021/11/30 06:26:24;;;;;;;;;7.00;7.00;;;;;5.89;70.12;101435.56;5040127;28;45477;-96
2021/11/30 06:28:49;;;;;;;;;13.25;10.75;;;;;5.87;70.41;101437.16;5040213;28;47924;-95
2021/11/30 06:31:15;;;;;;;;;10.00;7.00;;;;;5.99;70.06;101439.78;5058486;28;47965;-96
2021/11/30 06:33:41;;;;;;;;;14.50;14.50;;;;;6.03;69.83;101462.66;5058753;28;45444;-96
2021/11/30 06:36:06;;;;;;;;;12.00;12.00;;;;;6.04;70.01;101461.88;5039863;28;45640;-96
2021/11/30 06:38:32;;;;;;;;;9.25;8.50;;;;;6.03;69.84;101451.38;5039584;28;48007;-96
2021/11/30 06:40:57;;;;;;;;;11.75;9.50;;;;;5.99;69.83;101425.84;5036844;28;45523;-96
2021/11/30 06:43:23;;;;;;;;;10.75;10.75;;;;;5.97;69.87;101422.22;5023244;28;46000;-96
2021/11/30 06:45:48;;;;;;;;;7.75;7.25;;;;;6.16;69.62;101455.78;5052663;28;45553;-96
2021/11/30 06:48:16;;;;;;;;;11.75;9.00;;;;;6.14;70.24;101460.91;5037019;28;47259;-95
2021/11/30 06:50:42;;;;;;;;;10.25;10.25;;;;;6.11;69.71;101438.91;5039132;28;46059;-96
2021/11/30 06:53:08;;;;;;;;;10.25;10.25;;;;;6.17;69.24;101454.09;5057018;28;45455;-95
2021/11/30 06:55:33;;;;;;;;;8.00;6.25;;;;;6.16;69.65;101444.50;5038943;28;45609;-96
2021/11/30 06:58:00;;;;;;;;;10.50;10.50;;;;;6.21;69.51;101446.63;5041238;28;48309;-95
2021/11/30 07:00:52;;;;;;;;;16.25;12.00;;;;;6.22;69.56;101444.94;5051179;28;45412;-96
2021/11/30 07:11:23;;;;;;;;;10.25;9.50;;;;;6.30;69.38;101433.38;5037030;28;45434;-96
2021/11/30 07:13:49;;;;;;;;;12.00;12.00;;;;;6.43;69.02;101457.75;5015239;28;45499;-96
2021/11/30 07:16:14;;;;;;;;;9.25;9.25;;;;;6.40;68.94;101454.91;5001045;28;45585;-96
2021/11/30 07:18:40;;;;;;;;;15.25;12.75;;;;;6.32;69.44;101441.31;5036299;28;46940;-95
2021/11/30 07:21:07;;;;;;;;;14.25;12.50;;;;;6.34;69.17;101452.78;5002054;28;45782;-96
2021/11/30 07:23:32;;;;;;;;;10.00;10.00;;;;;6.38;69.24;101454.81;5011102;28;45429;-95
2021/11/30 07:26:04;;;;;;;;;12.00;12.00;;;;;6.51;68.99;101477.50;5035116;28;47188;-96
2021/11/30 07:28:31;;;;;;;;;12.50;12.50;;;;;6.57;68.89;101484.88;5000969;28;46440;-86
2021/11/30 07:31:04;;;;;;;;;16.25;9.50;;;;;6.58;68.69;101473.63;5032020;28;45481;-87
2021/11/30 07:33:32;;;;;;;;;11.25;11.25;;;;;6.61;68.78;101473.84;5031283;28;45450;-87
2021/11/30 07:36:00;;;;;;;;;13.00;11.25;;;;;6.60;69.41;101474.63;5031174;28;45600;-88
2021/11/30 07:38:26;;;;;;;;;14.00;9.50;;;;;6.68;68.81;101502.19;5031392;28;45673;-89
2021/11/30 07:40:52;;;;;;;;;8.75;8.75;;;;;6.65;69.01;101485.44;5030432;28;45392;-88
2021/11/30 07:43:17;;;;;;;;;13.75;10.75;;;;;6.62;69.08;101490.41;5012698;28;45426;-89
2021/11/30 07:45:44;;;;;;;;;12.25;12.00;;;;;6.68;69.13;101483.03;5031952;28;45349;-87
2021/11/30 07:48:10;;;;;;;;;16.00;14.00;;;;;6.65;69.16;101478.47;5011928;28;47509;-88
2021/11/30 07:50:35;;;;;;;;;15.25;11.50;;;;;6.64;69.14;101476.69;5015235;28;46139;-88
2021/11/30 07:53:01;;;;;;;;;17.50;12.50;;;;;6.71;69.29;101480.66;5033158;28;45307;-89
2021/11/30 07:55:26;;;;;;;;;16.75;11.50;;;;;6.72;68.74;101476.34;5033195;28;45301;-88
2021/11/30 07:57:52;;;;;;;;;11.25;8.50;;;;;6.74;68.92;101488.72;5032270;28;45422;-88
2021/11/30 08:00:18;;;;;;;;;13.00;13.00;;;;;6.78;68.57;101489.81;5025414;28;45326;-89
2021/11/30 08:02:45;;;;;;;;;13.75;12.00;;;;;6.79;68.42;101495.16;5025970;28;45594;-87
2021/11/30 08:05:11;;;;;;;;;13.50;11.75;;;;;6.78;68.50;101498.56;5026226;28;45474;-88
2021/11/30 08:07:38;;;;;;;;;15.25;13.25;;;;;6.79;68.66;101494.25;5023626;28;45765;-88
2021/11/30 08:10:11;;;;;;;;;12.00;12.00;;;;;6.77;68.23;101491.53;5008066;28;45592;-88
2021/11/30 08:12:37;;;;;;;;;13.50;12.00;;;;;6.76;68.30;101483.59;5025571;28;45823;-88
2021/11/30 08:15:04;;;;;;;;;17.50;14.50;;;;;6.85;68.08;101485.97;5023721;28;45436;-88
2021/11/30 08:17:29;;;;;;;;;18.75;15.50;;;;;6.82;68.44;101482.34;5023268;28;46912;-88
2021/11/30 08:19:55;;;;;;;;;19.00;14.00;;;;;6.82;68.33;101478.81;5001749;28;45593;-88
2021/11/30 08:22:20;;;;;;;;;12.75;12.75;;;;;6.81;68.33;101482.22;5023301;28;45444;-88
2021/11/30 08:24:45;;;;;;;;;9.50;8.00;;;;;6.84;68.08;101469.41;5027138;28;45377;-88
2021/11/30 08:27:11;;;;;;;;;20.50;14.25;;;;;6.84;68.63;101490.28;5004744;28;47933;-88
2021/11/30 08:29:42;;;;;;;;;16.50;14.50;;;;;6.90;68.27;101501.19;5004332;28;45719;-88
2021/11/30 08:32:08;;;;;;;;;13.50;12.00;;;;;6.95;68.35;101503.19;5018831;28;45736;-89
2021/11/30 08:34:35;;;;;;;;;18.00;16.00;;;;;6.96;68.19;101482.41;5011030;28;45721;-88
2021/11/30 08:37:01;;;;;;;;;19.50;16.50;;;;;6.93;67.89;101480.50;5023398;28;46357;-89
2021/11/30 08:39:26;;;;;;;;;18.50;13.00;;;;;7.00;68.11;101487.09;5001845;28;45985;-88
2021/11/30 08:41:52;;;;;;;;;14.75;14.00;;;;;7.03;67.75;101487.31;5022586;28;45518;-87
2021/11/30 08:44:17;;;;;;;;;14.50;12.75;;;;;7.07;67.69;101488.41;5021913;28;45669;-88
2021/11/30 08:46:43;;;;;;;;;17.75;16.00;;;;;7.09;67.81;101488.50;5025532;28;47625;-89
2021/11/30 08:49:08;;;;;;;;;16.00;15.50;;;;;7.12;68.12;101491.34;5010579;28;45600;-88
2021/11/30 08:51:34;;;;;;;;;13.75;13.75;;;;;7.14;67.82;101481.91;5011185;28;45476;-87
2021/11/30 08:54:00;;;;;;;;;21.25;17.25;;;;;7.13;67.63;101487.97;5005265;28;45607;-87
2021/11/30 08:56:26;;;;;;;;;18.75;15.75;;;;;7.17;67.64;101478.63;5014883;28;48080;-87
2021/11/30 08:58:51;;;;;;;;;20.00;17.50;;;;;7.20;68.04;101484.06;5034724;28;47715;-87
2021/11/30 09:01:19;;;;;;;;;14.00;11.50;;;;;7.29;67.71;101483.84;5010679;28;45431;-87
2021/11/30 09:03:45;;;;;;;;;21.00;13.00;;;;;7.33;67.34;101467.56;5015833;28;45585;-86
2021/11/30 09:06:10;;;;;;;;;18.00;13.75;;;;;7.44;67.50;101481.38;5011634;28;47102;-87
2021/11/30 09:08:35;;;;;;;;;20.75;18.00;;;;;7.48;67.34;101476.47;5032925;28;45356;-85
2021/11/30 09:11:01;;;;;;;;;17.50;14.00;;;;;7.57;67.51;101485.75;5032501;28;45938;-86
2021/11/30 09:13:26;;;;;;;;;17.50;14.75;;;;;7.65;67.24;101484.59;5027687;28;45369;-87
2021/11/30 09:15:52;;;;;;;;;17.25;15.50;;;;;7.76;66.88;101498.38;5017830;28;46383;-85
2021/11/30 09:18:18;;;;;;;;;17.00;15.25;;;;;7.79;67.44;101484.63;5011882;28;46823;-92
2021/11/30 09:20:44;;;;;;;;;18.75;15.00;;;;;7.84;66.91;101498.91;5015611;28;45843;-86
2021/11/30 09:23:11;;;;;;;;;17.50;16.50;;;;;7.86;66.64;101494.69;5033164;28;45561;-85
2021/11/30 09:25:37;;;;;;;;;23.75;18.25;;;;;7.91;66.85;101493.31;5000219;28;47174;-85
2021/11/30 09:28:03;;;;;;;;;20.25;15.25;;;;;7.91;66.80;101497.66;5009411;28;45464;-86
2021/11/30 09:30:30;;;;;;;;;18.75;15.50;;;;;7.91;66.62;101490.69;5014644;28;46991;-86
2021/11/30 09:32:56;;;;;;;;;24.75;17.50;;;;;7.91;66.74;101481.97;5028562;28;45446;-85
2021/11/30 09:35:23;;;;;;;;;21.75;15.75;;;;;7.89;67.06;101489.69;5024100;28;46183;-85
2021/11/30 09:37:51;;;;;;;;;26.00;21.50;;;;;7.94;66.61;101505.69;5012236;28;45502;-85
2021/11/30 09:40:20;;;;;;;;;20.25;18.50;;;;;7.91;66.62;101489.81;5027025;28;45337;-84
2021/11/30 09:42:48;;;;;;;;;22.50;17.00;;;;;7.83;67.00;101490.16;5010366;28;45688;-84
2021/11/30 09:45:14;;;;;;;;;21.75;17.00;;;;;7.87;67.23;101496.53;5025133;28;46207;-85
2021/11/30 09:47:41;;;;;;;;;20.75;19.00;;;;;7.89;67.53;101504.44;5032317;28;45685;-88
2021/11/30 09:50:10;;;;;;;;;25.00;20.25;;;;;7.90;67.46;101495.81;5012908;28;45502;-84
2021/11/30 09:52:36;;;;;;;;;20.25;16.25;;;;;7.95;66.77;101494.44;4993116;28;45769;-86
2021/11/30 09:55:03;;;;;;;;;23.50;19.75;;;;;7.99;67.03;101491.22;5032555;28;45468;-86
2021/11/30 09:57:28;;;;;;;;;18.25;17.50;;;;;8.04;66.95;101497.66;5005727;28;46069;-87
2021/11/30 09:59:54;;;;;;;;;24.25;22.00;;;;;7.98;66.78;101504.19;5027130;28;45755;-87
2021/11/30 10:02:19;;;;;;;;;23.25;21.00;;;;;7.99;66.87;101501.66;5004363;28;45588;-87
2021/11/30 10:04:44;;;;;;;;;20.00;18.50;;;;;7.98;67.02;101493.72;5006976;28;46914;-92
2021/11/30 10:07:10;;;;;;;;;21.50;19.75;;;;;8.10;67.17;101509.34;5028578;28;47026;-90
2021/11/30 10:09:35;;;;;;;;;22.00;17.75;;;;;8.10;66.81;101491.03;5033770;28;45448;-89
2021/11/30 10:12:07;;;;;;;;;22.00;20.50;;;;;8.21;66.68;101490.06;5032082;28;45357;-95
2021/11/30 10:14:37;;;;;;;;;24.25;20.25;;;;;8.31;66.83;101488.97;5008049;28;48088;-90
2021/11/30 10:17:30;;;;;;;;;19.50;16.75;;;;;8.32;66.55;101489.88;5000556;28;45673;-90
2021/11/30 10:20:05;;;;;;;;;18.25;17.25;;;;;8.39;66.38;101494.72;5009014;28;45452;-92
2021/11/30 10:22:33;;;;;;;;;17.75;15.75;;;;;8.40;66.48;101482.53;5032920;28;45344;-89
2021/11/30 10:25:11;;;;;;;;;19.50;15.00;;;;;8.42;66.46;101489.69;5029377;28;46621;-87
2021/11/30 10:27:41;;;;;;;;;23.25;18.50;;;;;8.41;66.60;101495.72;5006656;28;45466;-86
2021/11/30 10:30:16;;;;;;;;;16.00;15.50;;;;;8.44;66.85;101489.78;5010816;28;45459;-88
2021/11/30 10:32:45;;;;;;;;;14.25;13.50;;;;;8.52;66.92;101490.28;5011631;28;45800;-92
2021/11/30 10:35:12;;;;;;;;;20.67;15.67;;;;;8.49;66.29;101486.66;5013926;28;48168;-90
2021/11/30 10:37:43;;;;;;;;;15.67;14.00;;;;;8.50;66.52;101479.72;5009842;28;45763;-87
2021/11/30 10:40:22;;;;;;;;;16.67;14.33;;;;;8.46;66.58;101478.59;5006425;28;45570;-87
2021/11/30 10:42:51;;;;;;;;;16.33;14.00;;;;;8.53;66.45;101485.13;5024863;28;45624;-86
2021/11/30 10:45:30;;;;;;;;;14.67;14.67;;;;;8.56;66.51;101487.97;5005039;28;47606;-87
2021/11/30 10:48:05;;;;;;;;;12.33;11.67;;;;;8.57;66.38;101487.16;5009063;28;46209;-88
2021/11/30 10:50:38;;;;;;;;;13.67;12.00;;;;;8.55;66.62;101477.41;5026809;28;45495;-87
2021/11/30 10:53:32;;;;;;;;;13.75;13.00;;;;;8.57;66.60;101478.41;5030897;28;45568;-87
2021/11/30 10:56:01;;;;;;;;;14.33;10.67;;;;;8.59;66.51;101482.06;5001913;28;46704;-87
2021/11/30 10:58:41;;;;;;;;;15.33;13.00;;;;;8.58;66.60;101459.28;5010127;28;45492;-86
2021/11/30 11:01:18;;;;;;;;;16.33;13.33;;;;;8.65;66.33;101474.63;5007771;28;45812;-88
2021/11/30 11:03:46;;;;;;;;;13.50;12.75;;;;;8.68;66.72;101466.06;5030772;28;45483;-87
2021/11/30 11:06:30;;;;;;;;;10.67;10.67;;;;;8.78;66.60;101460.63;5030864;28;46323;-87
2021/11/30 11:09:09;;;;;;;;;15.00;12.00;;;;;8.87;66.43;101462.00;5008002;28;45897;-85
2021/11/30 11:11:46;;;;;;;;;21.00;14.67;;;;;8.89;66.63;101457.78;5028092;28;45490;-90
2021/11/30 11:14:20;;;;;;;;;13.67;11.33;;;;;8.93;66.33;101455.44;5008509;28;45481;-88
2021/11/30 11:17:10;;;;;;;;;11.33;11.00;;;;;8.99;65.80;101454.94;5010595;28;47602;-88
2021/11/30 11:19:40;;;;;;;;;9.00;8.00;;;;;8.99;65.92;101444.47;5031987;28;45710;-92
2021/11/30 11:22:15;;;;;;;;;15.00;11.33;;;;;9.01;66.25;101445.47;5031229;28;45526;-87
2021/11/30 11:24:42;;;;;;;;;14.33;11.00;;;;;8.94;66.34;101438.91;5013821;28;45502;-86
2021/11/30 11:27:07;;;;;;;;;11.67;11.67;;;;;8.97;66.50;101425.09;5050522;28;46243;-87
2021/11/30 11:29:35;;;;;;;;;13.00;10.33;;;;;9.05;66.33;101430.84;5035418;28;45530;-87
2021/11/30 11:32:08;;;;;;;;;12.33;11.67;;;;;9.07;66.04;101439.69;5021386;28;45442;-89
2021/11/30 11:34:35;;;;;;;;;12.00;12.00;;;;;9.03;66.45;101429.84;5018942;28;45310;-89
2021/11/30 11:37:04;;;;;;;;;11.33;9.00;;;;;9.12;66.38;101422.53;5007244;28;47048;-87
2021/11/30 11:39:31;;;;;;;;;10.00;10.00;;;;;9.12;66.21;101405.94;5031853;28;45625;-88
2021/11/30 11:42:02;;;;;;;;;14.25;13.50;;;;;9.21;66.45;101413.44;5010059;28;45583;-87
2021/11/30 11:44:28;;;;;;;;;12.33;9.67;;;;;9.26;66.05;101402.47;5025478;28;45397;-87
2021/11/30 11:47:09;;;;;;;;;11.33;11.33;;;;;9.29;66.08;101401.75;5008880;28;47138;-89
2021/11/30 11:49:40;;;;;;;;;14.25;12.75;;;;;9.37;66.13;101410.06;5015979;28;45496;-88
2021/11/30 11:52:17;;;;;;;;;10.00;10.00;;;;;9.48;66.02;101395.88;5022188;28;45361;-87
2021/11/30 11:54:59;;;;;;;;;14.00;10.00;;;;;9.77;64.95;101387.97;5029988;28;45465;-88
2021/11/30 11:57:25;;;;;;;;;14.00;9.67;;;;;9.94;65.14;101370.63;5005942;28;48199;-88
2021/11/30 11:59:51;;;;;;;;;13.75;12.25;;;;;10.03;64.64;101385.97;5008696;28;45471;-86
2021/11/30 12:02:20;;;;;;;;;16.33;13.67;;;;;10.04;64.79;101394.75;5029700;28;45437;-87